Time;durP1;ratioP1;P1;durP2;ratioP2;P2;SDS_P1;SDS_P2;PMS_P1;PMS_P2;Temp;Humidity;BMP_temperature;BMP_pressure;BME280_temperature;BME280_humidity;BME280_pressure;Samples;Min_cycle;Max_cycle;Signal;HPM_P1;HPM_P2
2021/10/09 00:00:16;;;;;;;;;;;7.90;99.90;;;;;;4995502;28;19952;-75
2021/10/09 00:02:43;;;;;;;;;;;8.00;99.90;;;;;;4994429;28;19932;-76
2021/10/09 00:05:18;;;;;;;;;;;7.90;99.90;;;;;;4995074;28;19936;-73
2021/10/09 00:07:50;;;;;;;;;;;8.00;99.90;;;;;;4995409;28;19925;-73
2021/10/09 00:10:27;;;;;;;;;;;8.00;99.90;;;;;;5011724;28;19929;-73
2021/10/09 00:12:59;;;;;;;;;;;7.90;99.90;;;;;;5011547;28;19951;-74
2021/10/09 00:15:31;;;;;;;;;;;7.90;99.90;;;;;;5012401;28;21060;-73
2021/10/09 00:18:00;;;;;;;;;;;7.90;99.90;;;;;;4995007;28;20426;-72
2021/10/09 00:20:28;;;;;;;;;;;7.90;99.90;;;;;;4995075;28;19968;-74
2021/10/09 00:23:00;;;;;;;;;;;7.90;99.90;;;;;;5011126;28;19925;-73
2021/10/09 00:25:32;;;;;;;;;;;7.80;99.90;;;;;;4994567;28;19977;-73
2021/10/09 00:27:59;;;;;;;;;;;7.80;99.90;;;;;;4995063;28;20399;-73
2021/10/09 00:30:26;;;;;;;;;;;7.80;99.90;;;;;;5011192;28;19929;-74
2021/10/09 00:32:53;;;;;;;;;;;7.70;99.90;;;;;;4994747;28;19925;-73
2021/10/09 00:35:25;;;;;;;;;;;7.60;99.90;;;;;;5012366;28;19925;-73
2021/10/09 00:37:52;;;;;;;;;;;7.60;99.90;;;;;;4994623;28;20377;-73
2021/10/09 00:40:24;;;;;;;;;;;7.60;99.90;;;;;;4979362;28;19929;-73
2021/10/09 00:42:51;;;;;;;;;;;7.60;99.90;;;;;;5012231;28;19925;-74
2021/10/09 00:45:23;;;;;;;;;;;7.60;99.90;;;;;;4994402;28;19925;-74
2021/10/09 00:47:55;;;;;;;;;;;7.50;99.90;;;;;;5011124;28;19933;-73
2021/10/09 00:50:27;;;;;;;;;;;7.50;99.90;;;;;;4994465;28;19937;-73
2021/10/09 00:52:58;;;;;;;;;;;7.50;99.90;;;;;;4995450;28;19932;-73
2021/10/09 00:55:30;;;;;;;;;;;7.50;99.90;;;;;;4994305;28;19925;-73
2021/10/09 00:57:57;;;;;;;;;;;7.50;99.90;;;;;;4994746;28;19965;-74
2021/10/09 01:00:24;;;;;;;;;;;7.40;99.90;;;;;;4994334;28;19948;-73
2021/10/09 01:02:51;;;;;;;;;;;7.40;99.90;;;;;;4994046;28;19925;-74
2021/10/09 01:05:24;;;;;;;;;;;7.40;99.90;;;;;;4994575;28;20381;-73
2021/10/09 01:07:55;;;;;;;;;;;7.30;99.90;;;;;;5010371;28;19933;-73
2021/10/09 01:10:23;;;;;;;;;;;7.30;99.90;;;;;;4993887;28;20020;-74
2021/10/09 01:12:50;;;;;;;;;;;7.30;99.90;;;;;;4993927;28;20407;-75
2021/10/09 01:15:22;;;;;;;;;;;7.30;99.90;;;;;;4993957;28;20308;-74
2021/10/09 01:17:56;;;;;;;;;;;7.30;99.90;;;;;;4993508;28;19936;-73
2021/10/09 01:20:23;;;;;;;;;;;7.20;99.90;;;;;;5014989;28;19926;-73
2021/10/09 01:22:57;;;;;;;;;;;7.20;99.90;;;;;;5014226;28;19940;-73
2021/10/09 01:25:31;;;;;;;;;;;7.20;99.90;;;;;;4997867;28;19926;-73
2021/10/09 01:28:03;;;;;;;;;;;7.10;99.90;;;;;;4998215;28;19961;-73
2021/10/09 01:30:33;;;;;;;;;;;7.10;99.90;;;;;;5014051;28;19929;-73
2021/10/09 01:33:00;;;;;;;;;;;7.00;99.90;;;;;;4997432;28;19975;-75
2021/10/09 01:35:43;;;;;;;;;;;7.00;99.90;;;;;;4997336;28;19972;-73
2021/10/09 01:38:10;;;;;;;;;;;7.00;99.90;;;;;;5014816;28;20384;-73
2021/10/09 01:40:43;;;;;;;;;;;6.90;99.90;;;;;;4997128;28;20392;-74
2021/10/09 01:43:14;;;;;;;;;;;6.90;99.90;;;;;;4997144;28;19925;-73
2021/10/09 01:45:42;;;;;;;;;;;6.90;99.90;;;;;;4997249;28;19925;-73
2021/10/09 01:48:09;;;;;;;;;;;6.80;99.90;;;;;;4997659;28;19960;-74
2021/10/09 01:50:42;;;;;;;;;;;6.80;99.90;;;;;;4997860;28;19930;-73
2021/10/09 01:53:11;;;;;;;;;;;6.80;99.90;;;;;;4997648;28;20130;-73
2021/10/09 01:55:40;;;;;;;;;;;6.80;99.90;;;;;;4997380;28;19957;-73
2021/10/09 01:58:13;;;;;;;;;;;6.70;99.90;;;;;;4997498;28;19925;-75
2021/10/09 02:00:45;;;;;;;;;;;6.70;99.90;;;;;;4997532;28;20273;-74
2021/10/09 02:03:15;;;;;;;;;;;6.70;99.90;;;;;;5013867;28;19925;-73
2021/10/09 02:05:48;;;;;;;;;;;6.70;99.90;;;;;;4997072;28;19964;-74
2021/10/09 02:08:20;;;;;;;;;;;6.70;99.90;;;;;;4997402;28;20020;-73
2021/10/09 02:13:25;;;;;;;;;;;6.70;99.90;;;;;;5014842;28;19967;-73
2021/10/09 02:27:38;;;;;;;;;;;6.80;99.90;;;;;;5000267;28;20292;-74
2021/10/09 02:30:10;;;;;;;;;;;6.80;99.90;;;;;;5012591;28;19925;-73
2021/10/09 02:32:42;;;;;;;;;;;6.80;99.90;;;;;;4981084;28;19933;-73
2021/10/09 02:35:15;;;;;;;;;;;6.80;99.90;;;;;;4996552;28;20396;-74
2021/10/09 02:37:42;;;;;;;;;;;6.80;99.90;;;;;;4996802;28;19983;-73
2021/10/09 02:40:15;;;;;;;;;;;6.90;99.90;;;;;;5014370;28;20396;-74
2021/10/09 02:42:41;;;;;;;;;;;6.90;99.90;;;;;;5013167;28;20087;-74
2021/10/09 02:45:14;;;;;;;;;;;6.90;99.90;;;;;;4996488;28;20293;-74
2021/10/09 02:47:45;;;;;;;;;;;6.90;99.90;;;;;;4981253;28;19988;-73
2021/10/09 02:50:18;;;;;;;;;;;7.00;99.90;;;;;;4996737;28;19930;-72
2021/10/09 02:52:48;;;;;;;;;;;7.00;99.90;;;;;;4996600;28;19929;-74
2021/10/09 02:55:18;;;;;;;;;;;7.00;99.90;;;;;;4996148;28;19948;-74
2021/10/09 02:57:47;;;;;;;;;;;7.00;99.90;;;;;;4996278;28;19926;-73
2021/10/09 03:00:20;;;;;;;;;;;7.00;99.90;;;;;;5012754;28;19958;-73
2021/10/09 03:02:48;;;;;;;;;;;7.00;99.90;;;;;;4996491;28;19932;-74
2021/10/09 03:05:21;;;;;;;;;;;7.00;99.90;;;;;;4996096;28;19926;-74
2021/10/09 03:07:53;;;;;;;;;;;7.00;99.90;;;;;;4996242;28;19929;-74
2021/10/09 03:10:26;;;;;;;;;;;7.00;99.90;;;;;;4996229;28;19932;-74
2021/10/09 03:12:59;;;;;;;;;;;7.00;99.90;;;;;;4996139;28;20307;-74
2021/10/09 03:15:27;;;;;;;;;;;7.00;99.90;;;;;;5012391;28;20285;-73
2021/10/09 03:17:55;;;;;;;;;;;7.00;99.90;;;;;;4996052;28;20392;-73
2021/10/09 03:20:22;;;;;;;;;;;7.00;99.90;;;;;;4996005;28;19926;-74
2021/10/09 03:22:54;;;;;;;;;;;7.00;99.90;;;;;;5012307;28;20313;-74
2021/10/09 03:25:27;;;;;;;;;;;7.00;99.90;;;;;;4995657;28;19926;-74
2021/10/09 03:27:55;;;;;;;;;;;6.90;99.90;;;;;;4995742;28;20395;-74
2021/10/09 03:30:27;;;;;;;;;;;6.90;99.90;;;;;;4995887;28;19976;-74
2021/10/09 03:33:00;;;;;;;;;;;7.00;99.90;;;;;;4995564;28;19925;-73
2021/10/09 03:35:33;;;;;;;;;;;6.90;99.90;;;;;;5013039;28;20012;-74
2021/10/09 03:38:05;;;;;;;;;;;6.90;99.90;;;;;;4995496;28;19932;-74
2021/10/09 03:40:32;;;;;;;;;;;6.90;99.90;;;;;;4995707;28;20016;-73
2021/10/09 03:43:08;;;;;;;;;;;6.90;99.90;;;;;;4980139;28;19932;-73
2021/10/09 03:45:58;;;;;;;;;;;6.90;99.90;;;;;;4995334;28;19942;-74
2021/10/09 03:48:54;;;;;;;;;;;6.90;99.90;;;;;;4995722;28;19926;-73
2021/10/09 03:54:18;;;;;;;;;;;6.90;99.90;;;;;;4995085;28;19932;-73
2021/10/09 03:56:49;;;;;;;;;;;6.80;99.90;;;;;;4995253;28;19925;-74
2021/10/09 03:59:22;;;;;;;;;;;6.80;99.90;;;;;;4995265;28;19933;-74
2021/10/09 04:01:54;;;;;;;;;;;6.80;99.90;;;;;;5012842;28;20407;-73
2021/10/09 04:04:23;;;;;;;;;;;6.80;99.90;;;;;;4995204;28;19930;-73
2021/10/09 04:06:56;;;;;;;;;;;6.80;99.90;;;;;;4995392;28;19925;-74
2021/10/09 04:09:23;;;;;;;;;;;6.80;99.90;;;;;;5011581;28;19926;-74
2021/10/09 04:11:50;;;;;;;;;;;6.90;99.90;;;;;;5011239;28;19951;-73
2021/10/09 04:14:23;;;;;;;;;;;6.90;99.90;;;;;;4995582;28;19925;-73
2021/10/09 04:16:55;;;;;;;;;;;6.90;99.90;;;;;;4994781;28;19957;-73
2021/10/09 04:19:28;;;;;;;;;;;6.90;99.90;;;;;;4995398;28;20285;-73
2021/10/09 04:22:00;;;;;;;;;;;7.00;99.90;;;;;;5012645;28;19925;-73
2021/10/09 04:24:30;;;;;;;;;;;7.00;99.90;;;;;;4994414;28;19975;-74
2021/10/09 04:27:02;;;;;;;;;;;7.00;99.90;;;;;;5012598;28;19932;-73
2021/10/09 04:29:30;;;;;;;;;;;7.10;99.90;;;;;;4994636;28;20381;-74
2021/10/09 04:32:03;;;;;;;;;;;7.10;99.90;;;;;;4994882;28;19925;-74
2021/10/09 04:34:35;;;;;;;;;;;7.10;99.90;;;;;;4960215;28;20411;-73
2021/10/09 04:37:02;;;;;;;;;;;7.20;99.90;;;;;;4970180;28;19933;-73
2021/10/09 04:39:35;;;;;;;;;;;7.20;99.90;;;;;;4984397;28;20474;-73
2021/10/09 04:42:02;;;;;;;;;;;7.30;99.90;;;;;;5001356;28;19933;-73
2021/10/09 04:44:30;;;;;;;;;;;7.30;99.90;;;;;;4978858;28;19936;-73
2021/10/09 04:47:02;;;;;;;;;;;7.30;99.90;;;;;;4981896;28;20020;-73
2021/10/09 04:49:35;;;;;;;;;;;7.30;99.90;;;;;;4985895;28;19982;-74
2021/10/09 04:52:07;;;;;;;;;;;7.30;99.90;;;;;;4974795;28;19973;-73
2021/10/09 04:54:41;;;;;;;;;;;7.30;99.90;;;;;;4963905;28;19930;-73
2021/10/09 04:57:13;;;;;;;;;;;7.30;99.90;;;;;;4981210;28;19926;-73
2021/10/09 04:59:41;;;;;;;;;;;7.30;99.90;;;;;;4981215;28;19936;-73
2021/10/09 05:02:13;;;;;;;;;;;7.30;99.90;;;;;;4981215;28;19933;-73
2021/10/09 05:04:45;;;;;;;;;;;7.30;99.90;;;;;;4980746;28;20352;-73
2021/10/09 05:07:13;;;;;;;;;;;7.30;99.90;;;;;;4981226;28;19952;-73
2021/10/09 05:09:42;;;;;;;;;;;7.30;99.90;;;;;;4981165;28;19926;-73
2021/10/09 05:12:18;;;;;;;;;;;7.20;99.90;;;;;;4997291;28;19930;-73
2021/10/09 05:14:45;;;;;;;;;;;7.20;99.90;;;;;;4980680;28;19933;-73
2021/10/09 05:17:19;;;;;;;;;;;7.20;99.90;;;;;;4998358;28;19926;-73
2021/10/09 05:19:46;;;;;;;;;;;7.20;99.90;;;;;;4981125;28;20024;-73
2021/10/09 05:22:19;;;;;;;;;;;7.20;99.90;;;;;;4980984;28;19976;-73
2021/10/09 05:24:54;;;;;;;;;;;7.20;99.90;;;;;;4980702;28;19932;-73
2021/10/09 05:27:23;;;;;;;;;;;7.30;99.90;;;;;;4980987;28;20016;-73
2021/10/09 05:29:50;;;;;;;;;;;7.30;99.90;;;;;;4980909;28;20359;-73
2021/10/09 05:32:23;;;;;;;;;;;7.30;99.90;;;;;;4980903;28;19932;-72
2021/10/09 05:34:50;;;;;;;;;;;7.30;99.90;;;;;;4996592;28;19930;-74
2021/10/09 05:37:18;;;;;;;;;;;7.20;99.90;;;;;;4977883;28;20017;-73
2021/10/09 05:39:46;;;;;;;;;;;7.20;99.90;;;;;;4980268;28;19960;-73
2021/10/09 05:42:13;;;;;;;;;;;7.20;99.90;;;;;;4979481;28;19926;-73
2021/10/09 05:44:40;;;;;;;;;;;7.20;99.90;;;;;;4980380;28;20415;-74
2021/10/09 05:47:12;;;;;;;;;;;7.10;99.90;;;;;;4980739;28;20020;-73
2021/10/09 05:49:44;;;;;;;;;;;7.10;99.90;;;;;;4981739;28;19926;-73
2021/10/09 05:52:22;;;;;;;;;;;7.10;99.90;;;;;;4980458;28;19926;-73
2021/10/09 05:55:10;;;;;;;;;;;7.10;99.90;;;;;;4981015;28;19933;-74
2021/10/09 05:57:43;;;;;;;;;;;7.20;99.90;;;;;;4980907;28;19932;-74
2021/10/09 07:01:24;;;;;;;;;;;7.60;99.90;;;;;;4975964;28;20035;-73
2021/10/09 07:03:51;;;;;;;;;;;7.60;99.90;;;;;;4976257;28;19934;-74
2021/10/09 07:06:24;;;;;;;;;;;7.60;99.90;;;;;;4968052;28;19926;-74
2021/10/09 07:08:57;;;;;;;;;;;7.70;99.90;;;;;;4980503;28;19930;-73
2021/10/09 07:11:42;;;;;;;;;;;7.70;99.90;;;;;;4976175;28;19925;-74
2021/10/09 07:14:10;;;;;;;;;;;7.80;99.90;;;;;;4975595;28;19932;-74
2021/10/09 07:16:40;;;;;;;;;;;7.90;99.90;;;;;;4978735;28;19937;-74
2021/10/09 07:19:08;;;;;;;;;;;7.90;99.90;;;;;;4976060;28;20012;-73
2021/10/09 07:21:42;;;;;;;;;;;7.90;99.90;;;;;;4985181;28;19930;-74
2021/10/09 07:24:15;;;;;;;;;;;8.00;99.90;;;;;;4954560;28;19925;-74
2021/10/09 07:26:47;;;;;;;;;;;8.10;99.90;;;;;;4954362;28;20028;-73
2021/10/09 07:29:19;;;;;;;;;;;8.20;99.90;;;;;;4973352;28;20109;-73
2021/10/09 07:31:51;;;;;;;;;;;8.20;99.90;;;;;;4991281;28;20037;-74
2021/10/09 07:34:22;;;;;;;;;;;8.30;99.90;;;;;;4958835;28;20012;-73
2021/10/09 07:36:54;;;;;;;;;;;8.40;99.90;;;;;;4987059;28;19936;-74
2021/10/09 07:39:26;;;;;;;;;;;8.40;99.90;;;;;;4973324;28;19976;-74
2021/10/09 07:41:53;;;;;;;;;;;8.50;99.90;;;;;;4987535;28;19929;-73
2021/10/09 07:44:24;;;;;;;;;;;8.60;99.90;;;;;;4964519;28;19926;-73
2021/10/09 07:46:55;;;;;;;;;;;8.60;99.90;;;;;;4968604;28;19932;-73
2021/10/09 07:49:22;;;;;;;;;;;8.70;99.90;;;;;;4972445;28;19965;-73
2021/10/09 07:51:49;;;;;;;;;;;8.70;99.90;;;;;;4977472;28;19930;-74
2021/10/09 07:54:21;;;;;;;;;;;8.70;99.90;;;;;;4962254;28;20296;-74
2021/10/09 07:56:54;;;;;;;;;;;8.70;99.90;;;;;;4978634;28;19979;-73
2021/10/09 07:59:26;;;;;;;;;;;8.70;99.90;;;;;;4981845;28;20397;-74
2021/10/09 08:01:53;;;;;;;;;;;8.70;99.90;;;;;;4990775;28;20050;-74
2021/10/09 08:04:25;;;;;;;;;;;8.70;99.90;;;;;;4962094;28;19925;-74
2021/10/09 08:06:57;;;;;;;;;;;8.80;99.90;;;;;;5004907;28;20003;-74
2021/10/09 08:09:34;;;;;;;;;;;8.80;99.90;;;;;;4974559;28;19969;-74
2021/10/09 08:12:06;;;;;;;;;;;8.90;99.90;;;;;;4976920;28;19964;-74
2021/10/09 08:14:34;;;;;;;;;;;8.90;99.90;;;;;;4972932;28;19948;-73
2021/10/09 08:17:06;;;;;;;;;;;9.00;99.90;;;;;;4978181;28;20308;-73
2021/10/09 08:19:38;;;;;;;;;;;9.00;99.90;;;;;;4986362;28;20396;-72
2021/10/09 08:22:10;;;;;;;;;;;9.10;99.90;;;;;;4983782;28;20237;-72
2021/10/09 08:24:50;;;;;;;;;;;9.10;99.90;;;;;;4973554;28;19930;-72
2021/10/09 08:41:19;;;;;;;;;;;9.40;99.90;;;;;;4990021;28;20377;-72
2021/10/09 08:43:50;;;;;;;;;;;9.50;99.90;;;;;;4988282;28;19933;-73
2021/10/09 08:46:23;;;;;;;;;;;9.60;99.90;;;;;;4988524;28;19933;-72
2021/10/09 08:48:51;;;;;;;;;;;9.70;99.90;;;;;;4993814;28;19933;-72
2021/10/09 08:51:27;;;;;;;;;;;9.80;99.90;;;;;;4966409;28;20447;-72
2021/10/09 08:54:05;;;;;;;;;;;9.90;99.90;;;;;;4991462;28;19933;-72
2021/10/09 08:56:38;;;;;;;;;;;9.90;99.90;;;;;;4979552;28;19933;-72
2021/10/09 08:59:17;;;;;;;;;;;9.90;99.90;;;;;;4982302;28;19973;-74
2021/10/09 09:41:22;;;;;;;;;;;11.20;99.90;;;;;;4971365;28;19926;-74
2021/10/09 09:43:59;;;;;;;;;;;11.30;99.90;;;;;;4986615;28;20397;-74
2021/10/09 09:46:27;;;;;;;;;;;11.50;99.90;;;;;;4985247;28;19926;-74
2021/10/09 09:49:00;;;;;;;;;;;11.60;99.90;;;;;;4974440;28;19926;-73
2021/10/09 09:51:35;;;;;;;;;;;11.70;99.90;;;;;;4981327;28;19932;-73
2021/10/09 09:54:07;;;;;;;;;;;11.80;99.90;;;;;;4952077;28;20387;-73
2021/10/09 09:56:34;;;;;;;;;;;11.80;99.90;;;;;;4972701;28;19925;-73
2021/10/09 09:59:08;;;;;;;;;;;11.90;99.90;;;;;;4985089;28;19929;-73
2021/10/09 10:01:35;;;;;;;;;;;11.90;99.90;;;;;;4984893;28;20388;-74
2021/10/09 10:04:07;;;;;;;;;;;12.00;99.90;;;;;;4986535;28;20030;-73
2021/10/09 10:06:34;;;;;;;;;;;12.00;99.90;;;;;;4982430;28;20345;-73
2021/10/09 10:09:06;;;;;;;;;;;12.00;99.90;;;;;;4977530;28;20420;-73
2021/10/09 10:11:38;;;;;;;;;;;12.00;99.90;;;;;;4979598;28;19926;-74
2021/10/09 10:14:06;;;;;;;;;;;12.10;99.90;;;;;;5006034;28;19925;-74
2021/10/09 10:16:34;;;;;;;;;;;12.20;99.90;;;;;;5012774;28;19929;-74
2021/10/09 10:19:01;;;;;;;;;;;12.20;99.90;;;;;;4980875;28;19976;-74
2021/10/09 10:21:36;;;;;;;;;;;12.20;99.90;;;;;;4979558;28;19930;-73
2021/10/09 10:24:12;;;;;;;;;;;12.20;99.90;;;;;;5004119;28;20009;-73
2021/10/09 10:26:41;;;;;;;;;;;12.40;99.90;;;;;;4983953;28;20435;-72
2021/10/09 10:29:14;;;;;;;;;;;12.50;99.90;;;;;;4988012;28;19976;-72
2021/10/09 10:32:00;;;;;;;;;;;12.50;99.90;;;;;;5007739;28;19925;-73
2021/10/09 10:34:35;;;;;;;;;;;12.50;99.90;;;;;;4990466;28;20393;-72
2021/10/09 10:37:07;;;;;;;;;;;12.60;99.90;;;;;;4972141;28;19932;-73
2021/10/09 10:39:39;;;;;;;;;;;12.60;99.90;;;;;;4983485;28;20341;-73
2021/10/09 10:42:24;;;;;;;;;;;12.70;99.90;;;;;;4979609;28;19969;-73
2021/10/09 10:47:47;;;;;;;;;;;13.00;99.90;;;;;;4997508;28;19926;-73
2021/10/09 10:50:32;;;;;;;;;;;13.00;99.90;;;;;;4984315;28;20407;-73
2021/10/09 10:53:08;;;;;;;;;;;13.00;99.90;;;;;;5002603;28;19995;-73
2021/10/09 10:55:59;;;;;;;;;;;13.10;99.90;;;;;;4991150;28;19996;-73
2021/10/09 10:58:32;;;;;;;;;;;13.20;99.90;;;;;;4992978;28;20024;-73
2021/10/09 11:01:14;;;;;;;;;;;13.30;99.90;;;;;;4975771;28;20444;-73
2021/10/09 11:03:51;;;;;;;;;;;13.40;99.90;;;;;;5001097;28;19926;-73
2021/10/09 11:06:25;;;;;;;;;;;13.40;99.90;;;;;;4976918;28;20009;-73
2021/10/09 11:08:53;;;;;;;;;;;13.50;99.90;;;;;;4985677;28;20025;-73
2021/10/09 11:11:33;;;;;;;;;;;13.60;99.90;;;;;;4975402;28;20013;-73
2021/10/09 11:14:00;;;;;;;;;;;13.70;99.90;;;;;;4975894;28;20746;-73
2021/10/09 11:16:33;;;;;;;;;;;13.70;99.90;;;;;;4982731;28;20381;-73
2021/10/09 11:18:59;;;;;;;;;;;13.70;99.90;;;;;;4978690;28;19977;-73
2021/10/09 11:21:26;;;;;;;;;;;13.80;99.90;;;;;;4971335;28;19926;-73
2021/10/09 11:23:54;;;;;;;;;;;13.90;99.90;;;;;;4998386;28;19933;-73
2021/10/09 11:26:22;;;;;;;;;;;13.90;99.90;;;;;;4978394;28;20012;-73
2021/10/09 11:28:59;;;;;;;;;;;14.00;99.90;;;;;;4994915;28;20654;-73
2021/10/09 11:31:32;;;;;;;;;;;14.00;99.90;;;;;;4967872;28;19930;-73
2021/10/09 11:34:00;;;;;;;;;;;14.10;99.90;;;;;;4998161;28;19936;-73
2021/10/09 11:36:28;;;;;;;;;;;14.20;99.90;;;;;;4985154;28;19972;-73
2021/10/09 11:39:04;;;;;;;;;;;14.30;99.90;;;;;;4997750;28;20308;-73
2021/10/09 11:41:32;;;;;;;;;;;14.30;99.90;;;;;;4991257;28;19997;-73
2021/10/09 11:44:05;;;;;;;;;;;14.40;99.90;;;;;;4986848;28;19961;-73
2021/10/09 11:55:27;;;;;;;;;;;14.70;99.90;;;;;;5005302;28;20047;-72
2021/10/09 11:58:01;;;;;;;;;;;14.80;99.90;;;;;;4994435;28;19926;-72
2021/10/09 12:00:28;;;;;;;;;;;14.90;99.90;;;;;;4994284;28;19926;-72
2021/10/09 12:03:01;;;;;;;;;;;15.00;99.90;;;;;;5011340;28;19932;-72
2021/10/09 12:05:48;;;;;;;;;;;15.00;99.90;;;;;;4993644;28;19929;-72
2021/10/09 12:08:27;;;;;;;;;;;15.10;99.90;;;;;;4995234;28;19925;-73
2021/10/09 12:11:10;;;;;;;;;;;15.20;99.90;;;;;;5010829;28;19977;-73
2021/10/09 12:14:07;;;;;;;;;;;15.20;99.90;;;;;;4994585;28;19929;-73
2021/10/09 12:16:41;;;;;;;;;;;15.30;99.90;;;;;;4972072;28;19926;-73
2021/10/09 12:19:15;;;;;;;;;;;15.30;99.90;;;;;;4993884;28;19925;-72
2021/10/09 12:21:50;;;;;;;;;;;15.40;99.90;;;;;;4989811;28;19934;-72
2021/10/09 12:24:22;;;;;;;;;;;15.40;99.90;;;;;;4982081;28;19925;-72
2021/10/09 12:27:05;;;;;;;;;;;15.50;99.90;;;;;;4976038;28;19926;-72
2021/10/09 12:29:54;;;;;;;;;;;15.60;99.90;;;;;;4970405;28;19929;-73
2021/10/09 12:32:27;;;;;;;;;;;15.60;99.90;;;;;;4970984;28;19953;-72
2021/10/09 12:35:14;;;;;;;;;;;15.70;99.90;;;;;;4979477;28;20401;-73
2021/10/09 12:37:59;;;;;;;;;;;15.80;99.90;;;;;;4974040;28;19937;-72
2021/10/09 12:40:41;;;;;;;;;;;15.70;99.90;;;;;;4966206;28;19973;-72
2021/10/09 12:43:13;;;;;;;;;;;15.70;99.90;;;;;;4960447;28;19930;-72
2021/10/09 12:45:45;;;;;;;;;;;15.70;99.90;;;;;;4942193;28;19948;-72
2021/10/09 12:48:13;;;;;;;;;;;15.70;99.90;;;;;;4972339;28;19937;-72
2021/10/09 12:50:41;;;;;;;;;;;15.80;99.90;;;;;;4959696;28;19925;-72
2021/10/09 12:53:13;;;;;;;;;;;15.80;99.90;;;;;;4963019;28;19926;-72
2021/10/09 12:55:45;;;;;;;;;;;15.80;99.90;;;;;;4973572;28;19964;-72
2021/10/09 12:58:17;;;;;;;;;;;15.90;99.90;;;;;;4981903;28;19973;-73
2021/10/09 13:00:48;;;;;;;;;;;15.90;99.90;;;;;;4972616;28;19926;-72
2021/10/09 13:03:15;;;;;;;;;;;16.00;99.90;;;;;;4986913;28;19926;-72
2021/10/09 13:05:42;;;;;;;;;;;16.10;99.90;;;;;;4991468;28;19944;-72
2021/10/09 13:08:14;;;;;;;;;;;16.10;99.90;;;;;;4974684;28;20292;-72
2021/10/09 13:10:45;;;;;;;;;;;16.20;99.90;;;;;;4974274;28;19925;-72
2021/10/09 13:13:12;;;;;;;;;;;16.20;99.90;;;;;;4970579;28;20471;-72
2021/10/09 13:15:39;;;;;;;;;;;16.10;99.90;;;;;;4977375;28;19925;-73
2021/10/09 13:18:12;;;;;;;;;;;16.10;99.90;;;;;;4989960;28;19925;-72
2021/10/09 13:20:39;;;;;;;;;;;16.10;99.90;;;;;;4970600;28;19926;-72
2021/10/09 13:23:11;;;;;;;;;;;16.20;99.90;;;;;;4969503;28;19952;-72
2021/10/09 13:25:40;;;;;;;;;;;16.20;99.90;;;;;;4987694;28;19961;-72
2021/10/09 13:28:07;;;;;;;;;;;16.20;99.90;;;;;;4973886;28;19925;-72
2021/10/09 13:30:39;;;;;;;;;;;16.30;99.90;;;;;;4975482;28;19930;-72
2021/10/09 13:33:06;;;;;;;;;;;16.30;99.90;;;;;;4971438;28;19934;-73
2021/10/09 13:35:32;;;;;;;;;;;16.20;99.90;;;;;;4971541;28;19929;-72
2021/10/09 13:38:04;;;;;;;;;;;16.20;99.90;;;;;;4985898;28;19972;-72
2021/10/09 13:40:36;;;;;;;;;;;16.10;99.90;;;;;;4975621;28;19926;-73
2021/10/09 13:43:03;;;;;;;;;;;16.10;99.90;;;;;;4993456;28;20492;-73
2021/10/09 13:45:30;;;;;;;;;;;16.20;99.90;;;;;;4975643;28;20377;-73
2021/10/09 13:48:02;;;;;;;;;;;16.30;99.90;;;;;;4971411;28;20397;-73
2021/10/09 13:50:35;;;;;;;;;;;16.30;99.90;;;;;;4965186;28;20389;-72
2021/10/09 13:53:10;;;;;;;;;;;16.30;99.90;;;;;;4974810;28;19942;-72
2021/10/09 13:55:42;;;;;;;;;;;16.20;99.90;;;;;;4992568;28;19925;-72
2021/10/09 13:58:10;;;;;;;;;;;16.20;99.90;;;;;;4975256;28;19972;-72
2021/10/09 14:00:43;;;;;;;;;;;16.20;99.90;;;;;;4975125;28;20320;-72
2021/10/09 14:03:11;;;;;;;;;;;16.20;99.90;;;;;;4986344;28;19926;-72
2021/10/09 14:05:38;;;;;;;;;;;16.10;99.90;;;;;;4987968;28;19929;-72
2021/10/09 14:08:10;;;;;;;;;;;16.20;99.90;;;;;;4977351;28;19936;-72
2021/10/09 14:10:37;;;;;;;;;;;16.20;99.90;;;;;;4975280;28;19926;-72
2021/10/09 14:13:11;;;;;;;;;;;16.20;99.90;;;;;;4993702;28;19938;-72
2021/10/09 14:15:38;;;;;;;;;;;16.20;99.90;;;;;;4980752;28;19972;-72
2021/10/09 14:18:10;;;;;;;;;;;16.20;99.90;;;;;;4978251;28;19926;-72
2021/10/09 14:20:37;;;;;;;;;;;16.20;99.90;;;;;;4993443;28;19926;-72
2021/10/09 14:23:04;;;;;;;;;;;16.20;99.90;;;;;;4975127;28;19981;-72
2021/10/09 14:25:36;;;;;;;;;;;16.30;99.90;;;;;;4997233;28;19926;-72
2021/10/09 14:28:05;;;;;;;;;;;16.30;99.90;;;;;;4974925;28;19926;-72
2021/10/09 14:30:32;;;;;;;;;;;16.30;99.90;;;;;;4971930;28;20270;-72
2021/10/09 14:33:05;;;;;;;;;;;16.30;99.90;;;;;;4992078;28;19926;-72
2021/10/09 14:35:32;;;;;;;;;;;16.30;99.90;;;;;;4973436;28;20459;-73
2021/10/09 14:38:07;;;;;;;;;;;16.30;99.90;;;;;;4966551;28;19925;-72
2021/10/09 14:40:40;;;;;;;;;;;16.20;99.90;;;;;;4963169;28;19948;-72
2021/10/09 14:43:10;;;;;;;;;;;16.20;99.90;;;;;;4956323;28;19969;-73
2021/10/09 14:45:37;;;;;;;;;;;16.20;99.90;;;;;;4971249;28;20348;-72
2021/10/09 14:48:09;;;;;;;;;;;16.20;99.90;;;;;;4983946;28;19933;-73
2021/10/09 15:18:20;;;;;;;;;;;17.80;99.00;;;;;;4979032;28;20355;-73
2021/10/09 15:20:48;;;;;;;;;;;18.00;98.40;;;;;;4971605;28;19935;-73
2021/10/09 15:23:15;;;;;;;;;;;18.20;97.70;;;;;;4985204;28;19932;-73
2021/10/09 15:25:48;;;;;;;;;;;18.30;97.60;;;;;;4976251;28;19934;-73
2021/10/09 15:28:20;;;;;;;;;;;18.60;96.70;;;;;;4976231;28;19952;-73
2021/10/09 15:30:52;;;;;;;;;;;18.70;96.40;;;;;;4976802;28;19933;-73
2021/10/09 15:33:24;;;;;;;;;;;18.90;96.30;;;;;;4975159;28;19926;-73
2021/10/09 15:35:53;;;;;;;;;;;18.90;95.60;;;;;;4975025;28;20564;-72
2021/10/09 15:38:20;;;;;;;;;;;19.00;95.60;;;;;;4971910;28;20367;-72
2021/10/09 15:40:47;;;;;;;;;;;18.90;94.90;;;;;;4970089;28;19932;-73
2021/10/09 15:43:14;;;;;;;;;;;19.10;95.20;;;;;;4979290;28;19971;-72
2021/10/09 15:45:44;;;;;;;;;;;19.20;95.50;;;;;;4963324;28;21347;-73
2021/10/09 15:48:11;;;;;;;;;;;19.20;94.80;;;;;;4974497;28;20312;-73
2021/10/09 15:50:38;;;;;;;;;;;19.30;95.10;;;;;;4974562;28;20296;-72
2021/10/09 15:53:15;;;;;;;;;;;19.20;94.60;;;;;;4972511;28;19926;-72
2021/10/09 15:55:43;;;;;;;;;;;19.20;94.50;;;;;;4966038;28;19930;-72
2021/10/09 15:58:11;;;;;;;;;;;19.00;94.60;;;;;;4970673;28;19941;-72
2021/10/09 16:00:38;;;;;;;;;;;18.60;95.40;;;;;;4970080;28;19952;-72
2021/10/09 16:03:05;;;;;;;;;;;18.20;96.10;;;;;;4982299;28;19955;-72
2021/10/09 16:05:37;;;;;;;;;;;17.60;97.10;;;;;;4985495;28;20401;-72
2021/10/09 16:08:10;;;;;;;;;;;17.20;97.90;;;;;;4973142;28;19929;-72
2021/10/09 16:10:37;;;;;;;;;;;16.90;98.80;;;;;;4973152;28;19945;-72
2021/10/09 16:13:11;;;;;;;;;;;16.50;99.70;;;;;;4975210;28;19925;-73
2021/10/09 16:15:39;;;;;;;;;;;16.20;99.90;;;;;;4983800;28;20324;-73
2021/10/09 16:18:11;;;;;;;;;;;16.00;99.90;;;;;;4968328;28;20404;-72
2021/10/09 16:20:37;;;;;;;;;;;15.70;99.90;;;;;;4972677;28;19926;-72
2021/10/09 16:23:04;;;;;;;;;;;15.50;99.90;;;;;;4986693;28;20360;-72
2021/10/09 16:25:36;;;;;;;;;;;15.40;99.90;;;;;;4984366;28;19937;-72
2021/10/09 16:28:10;;;;;;;;;;;15.30;99.90;;;;;;4967323;28;20000;-72
2021/10/09 16:30:43;;;;;;;;;;;15.20;99.90;;;;;;4973815;28;19955;-72
2021/10/09 16:33:15;;;;;;;;;;;15.00;99.90;;;;;;4958270;28;19933;-72
2021/10/09 16:35:41;;;;;;;;;;;15.00;99.90;;;;;;4974302;28;19930;-73
2021/10/09 16:38:09;;;;;;;;;;;14.90;99.90;;;;;;4957685;28;20029;-72
2021/10/09 16:40:35;;;;;;;;;;;14.60;99.90;;;;;;4991146;28;19972;-72
2021/10/09 16:43:02;;;;;;;;;;;14.50;99.90;;;;;;4958667;28;19926;-72
2021/10/09 16:45:35;;;;;;;;;;;14.40;99.90;;;;;;4974222;28;19925;-72
2021/10/09 16:48:09;;;;;;;;;;;14.20;99.90;;;;;;4959348;28;20355;-72
2021/10/09 16:50:36;;;;;;;;;;;14.10;99.90;;;;;;4973979;28;19937;-72
2021/10/09 16:53:08;;;;;;;;;;;14.00;99.90;;;;;;4974613;28;19933;-72
2021/10/09 16:55:42;;;;;;;;;;;13.90;99.90;;;;;;4974186;28;19929;-72
2021/10/09 16:58:14;;;;;;;;;;;13.70;99.90;;;;;;4992003;28;19933;-72
2021/10/09 17:00:41;;;;;;;;;;;13.60;99.90;;;;;;4969017;28;19926;-72
2021/10/09 17:03:08;;;;;;;;;;;13.50;99.90;;;;;;4992687;28;19957;-72
2021/10/09 17:05:40;;;;;;;;;;;13.40;99.90;;;;;;4985657;28;19969;-72
2021/10/09 17:08:07;;;;;;;;;;;13.30;99.90;;;;;;4973708;28;20431;-72
2021/10/09 17:10:39;;;;;;;;;;;13.40;99.90;;;;;;4966632;28;19926;-72
2021/10/09 17:13:11;;;;;;;;;;;13.30;99.90;;;;;;4968972;28;19964;-71
2021/10/09 17:15:43;;;;;;;;;;;13.30;99.90;;;;;;4988404;28;19929;-72
2021/10/09 17:18:09;;;;;;;;;;;13.30;99.90;;;;;;4999793;28;19926;-72
2021/10/09 17:20:41;;;;;;;;;;;13.30;99.90;;;;;;4976643;28;19996;-71
2021/10/09 17:23:08;;;;;;;;;;;13.20;99.90;;;;;;4993513;28;19926;-72
2021/10/09 17:25:35;;;;;;;;;;;13.00;99.90;;;;;;4983140;28;19925;-72
2021/10/09 17:28:02;;;;;;;;;;;12.70;99.90;;;;;;4986662;28;20343;-74
2021/10/09 17:30:31;;;;;;;;;;;12.40;99.90;;;;;;4991042;28;19926;-72
2021/10/09 17:32:58;;;;;;;;;;;12.10;99.90;;;;;;4990099;28;19926;-72
2021/10/09 17:35:29;;;;;;;;;;;11.80;99.90;;;;;;4980268;28;19926;-72
2021/10/09 17:38:08;;;;;;;;;;;11.50;99.90;;;;;;4991126;28;19929;-72